首页
METAR-TAF:

METAR-TAF

机场 :

哈利法克斯罗伯特·洛恩·斯坦菲尔德国际机场

哈利法克斯, 新斯科舍, 加拿大

纬度: 44-53N, 经度: 063-30W, 海拔: 145米

当前天气观测

该预报发布于1小时和2分钟前的01:00 UTC
风速13节,风向北转西北
温度 6°C
湿度 81%
气压 1003 hPa
能見度: 24.1公里
阴天层高于8000英尺

METAR: CYHZ 220100Z 34013KT 15SM OVC080 06/03 A2962 RMK AC8 SLP034

时间: 23:02 (02:02 UTC)

预报

该预报发布于2小时和23分钟前的23:39 UTC
预报有效从22日的 00点(UTC)到 22日的 24点(UTC)
风速12节,风向北转西北
能見度: 10公里
散云层高于18000英尺
多云层高于24000英尺
成为
从 22日的 01点(UTC)到 22日的 03点(UTC)
风速12节,风向西北,有时为22节阵风
从 22日的 0900点(UTC)
风速12节,风向西转西北
能見度: 10公里
散云层高于3000英尺
从 22日的 1200点(UTC)
风速12节,风向西转西北,有时为22节阵风
能見度: 10公里
散云层高于3000英尺
成为
从 22日的 13点(UTC)到 22日的 15点(UTC)
风速18节,风向西

TAF: CYHZ 212339Z 2200/2224 34012KT P6SM SCT180 BKN240 BECMG 2201/2203 31012G22KT FM220900 30012KT P6SM SCT030 FM221200 30012G22KT P6SM SCT030 BECMG 2213/2215 28018KT RMK NXT FCST BY 220300Z

超过4000个机场的气象观测和天气预报(METAR&TAF报告)。

可查询的气象台以黄色和红色小点在地图上表示。

将鼠标移到小点上方,可查看气象台名称。

然后点击查看天气观测和预报。

如需切换地图:点击带黑十字的绿色按钮放大地图;点击带横线的绿色按钮缩小地图;或者点击绿色箭头查看邻近地区的地图。


METAR-TAF: